sensor_id;sensor_type;location;lat;lon;timestamp;P1;durP1;ratioP1;P2;durP2;ratioP2
51224;SDS011;37298;42.688;23.312;2023-07-31T00:00:45;5.28;;;3.20;;
51224;SDS011;37298;42.688;23.312;2023-07-31T00:03:11;4.95;;;3.15;;
51224;SDS011;37298;42.688;23.312;2023-07-31T00:05:38;5.28;;;2.95;;
51224;SDS011;37298;42.688;23.312;2023-07-31T00:08:04;6.95;;;3.10;;
51224;SDS011;37298;42.688;23.312;2023-07-31T00:10:30;5.20;;;3.35;;
51224;SDS011;37298;42.688;23.312;2023-07-31T00:12:57;3.75;;;2.75;;
51224;SDS011;37298;42.688;23.312;2023-07-31T00:15:23;4.55;;;2.60;;
51224;SDS011;37298;42.688;23.312;2023-07-31T00:17:49;5.72;;;3.25;;
51224;SDS011;37298;42.688;23.312;2023-07-31T00:20:15;5.22;;;2.80;;
51224;SDS011;37298;42.688;23.312;2023-07-31T00:22:41;5.88;;;3.15;;
51224;SDS011;37298;42.688;23.312;2023-07-31T00:25:08;3.60;;;2.83;;
51224;SDS011;37298;42.688;23.312;2023-07-31T00:27:34;3.70;;;3.00;;
51224;SDS011;37298;42.688;23.312;2023-07-31T00:30:01;5.65;;;3.63;;
51224;SDS011;37298;42.688;23.312;2023-07-31T00:32:27;5.45;;;3.67;;
51224;SDS011;37298;42.688;23.312;2023-07-31T00:34:54;5.82;;;3.63;;
51224;SDS011;37298;42.688;23.312;2023-07-31T00:37:20;4.70;;;3.45;;
51224;SDS011;37298;42.688;23.312;2023-07-31T00:39:46;4.80;;;4.30;;
51224;SDS011;37298;42.688;23.312;2023-07-31T00:42:12;4.25;;;3.38;;
51224;SDS011;37298;42.688;23.312;2023-07-31T00:44:38;5.35;;;4.18;;
51224;SDS011;37298;42.688;23.312;2023-07-31T00:47:05;5.68;;;4.43;;
51224;SDS011;37298;42.688;23.312;2023-07-31T00:49:31;4.63;;;3.95;;
51224;SDS011;37298;42.688;23.312;2023-07-31T00:51:58;8.18;;;4.72;;
51224;SDS011;37298;42.688;23.312;2023-07-31T00:54:25;6.20;;;5.05;;
51224;SDS011;37298;42.688;23.312;2023-07-31T00:56:51;7.30;;;5.70;;
51224;SDS011;37298;42.688;23.312;2023-07-31T00:59:18;7.82;;;6.22;;
51224;SDS011;37298;42.688;23.312;2023-07-31T01:01:45;8.70;;;6.88;;
51224;SDS011;37298;42.688;23.312;2023-07-31T01:04:11;6.53;;;5.70;;
51224;SDS011;37298;42.688;23.312;2023-07-31T01:06:40;12.23;;;9.73;;
51224;SDS011;37298;42.688;23.312;2023-07-31T01:09:11;14.57;;;10.68;;
51224;SDS011;37298;42.688;23.312;2023-07-31T01:11:38;13.35;;;9.65;;
51224;SDS011;37298;42.688;23.312;2023-07-31T01:14:08;12.93;;;9.80;;
51224;SDS011;37298;42.688;23.312;2023-07-31T01:16:34;12.88;;;9.27;;
51224;SDS011;37298;42.688;23.312;2023-07-31T01:19:00;13.15;;;9.75;;
51224;SDS011;37298;42.688;23.312;2023-07-31T01:21:44;15.15;;;11.88;;
51224;SDS011;37298;42.688;23.312;2023-07-31T01:24:23;16.33;;;12.20;;
51224;SDS011;37298;42.688;23.312;2023-07-31T01:26:51;22.13;;;11.68;;
51224;SDS011;37298;42.688;23.312;2023-07-31T01:29:20;14.90;;;11.57;;
51224;SDS011;37298;42.688;23.312;2023-07-31T01:31:48;14.70;;;10.18;;
51224;SDS011;37298;42.688;23.312;2023-07-31T01:34:16;15.98;;;11.57;;
51224;SDS011;37298;42.688;23.312;2023-07-31T01:36:44;15.05;;;10.52;;
51224;SDS011;37298;42.688;23.312;2023-07-31T01:39:10;17.10;;;13.05;;
51224;SDS011;37298;42.688;23.312;2023-07-31T01:41:36;20.77;;;13.95;;
51224;SDS011;37298;42.688;23.312;2023-07-31T01:44:05;17.20;;;13.98;;
51224;SDS011;37298;42.688;23.312;2023-07-31T01:46:31;20.40;;;14.20;;
51224;SDS011;37298;42.688;23.312;2023-07-31T01:48:57;18.88;;;14.02;;
51224;SDS011;37298;42.688;23.312;2023-07-31T01:51:23;18.92;;;15.02;;
51224;SDS011;37298;42.688;23.312;2023-07-31T01:53:50;17.90;;;13.27;;
51224;SDS011;37298;42.688;23.312;2023-07-31T01:56:16;21.08;;;14.75;;
51224;SDS011;37298;42.688;23.312;2023-07-31T01:58:42;21.63;;;15.30;;
51224;SDS011;37298;42.688;23.312;2023-07-31T02:01:10;21.58;;;15.55;;
51224;SDS011;37298;42.688;23.312;2023-07-31T02:03:36;18.38;;;13.57;;
51224;SDS011;37298;42.688;23.312;2023-07-31T02:06:02;23.20;;;16.48;;
51224;SDS011;37298;42.688;23.312;2023-07-31T02:08:28;23.63;;;15.98;;
51224;SDS011;37298;42.688;23.312;2023-07-31T02:10:54;21.50;;;15.50;;
51224;SDS011;37298;42.688;23.312;2023-07-31T02:13:21;19.77;;;15.07;;
51224;SDS011;37298;42.688;23.312;2023-07-31T02:15:47;21.30;;;14.98;;
51224;SDS011;37298;42.688;23.312;2023-07-31T02:18:14;21.60;;;15.27;;
51224;SDS011;37298;42.688;23.312;2023-07-31T02:20:40;22.67;;;16.60;;
51224;SDS011;37298;42.688;23.312;2023-07-31T02:23:07;22.55;;;14.80;;
51224;SDS011;37298;42.688;23.312;2023-07-31T02:25:33;21.80;;;14.57;;
51224;SDS011;37298;42.688;23.312;2023-07-31T02:27:59;22.50;;;16.05;;
51224;SDS011;37298;42.688;23.312;2023-07-31T02:30:26;21.58;;;15.55;;
51224;SDS011;37298;42.688;23.312;2023-07-31T02:32:52;21.13;;;16.25;;
51224;SDS011;37298;42.688;23.312;2023-07-31T02:35:19;20.48;;;15.65;;
51224;SDS011;37298;42.688;23.312;2023-07-31T02:37:45;21.40;;;14.75;;
51224;SDS011;37298;42.688;23.312;2023-07-31T02:40:12;21.23;;;16.00;;
51224;SDS011;37298;42.688;23.312;2023-07-31T02:42:38;22.45;;;15.80;;
51224;SDS011;37298;42.688;23.312;2023-07-31T02:45:05;21.23;;;15.30;;
51224;SDS011;37298;42.688;23.312;2023-07-31T02:47:31;22.40;;;16.45;;
51224;SDS011;37298;42.688;23.312;2023-07-31T02:49:57;22.48;;;15.90;;
51224;SDS011;37298;42.688;23.312;2023-07-31T02:52:25;20.30;;;15.38;;
51224;SDS011;37298;42.688;23.312;2023-07-31T02:54:54;19.50;;;14.27;;
51224;SDS011;37298;42.688;23.312;2023-07-31T02:57:20;20.73;;;15.65;;
51224;SDS011;37298;42.688;23.312;2023-07-31T02:59:46;25.48;;;15.65;;
51224;SDS011;37298;42.688;23.312;2023-07-31T03:02:12;20.50;;;15.02;;
51224;SDS011;37298;42.688;23.312;2023-07-31T03:04:39;20.65;;;14.05;;
51224;SDS011;37298;42.688;23.312;2023-07-31T03:07:05;21.70;;;16.67;;
51224;SDS011;37298;42.688;23.312;2023-07-31T03:09:32;21.45;;;15.73;;
51224;SDS011;37298;42.688;23.312;2023-07-31T03:11:58;21.23;;;15.90;;
51224;SDS011;37298;42.688;23.312;2023-07-31T03:14:25;25.70;;;13.95;;
51224;SDS011;37298;42.688;23.312;2023-07-31T03:16:52;22.40;;;15.75;;
51224;SDS011;37298;42.688;23.312;2023-07-31T03:19:19;20.13;;;14.70;;
51224;SDS011;37298;42.688;23.312;2023-07-31T03:21:45;19.48;;;14.50;;
51224;SDS011;37298;42.688;23.312;2023-07-31T03:24:11;23.38;;;15.50;;
51224;SDS011;37298;42.688;23.312;2023-07-31T03:26:38;22.55;;;15.65;;
51224;SDS011;37298;42.688;23.312;2023-07-31T03:29:06;21.27;;;16.30;;
51224;SDS011;37298;42.688;23.312;2023-07-31T03:31:33;23.05;;;16.55;;
51224;SDS011;37298;42.688;23.312;2023-07-31T03:33:59;22.92;;;15.18;;
51224;SDS011;37298;42.688;23.312;2023-07-31T03:36:26;21.80;;;14.88;;
51224;SDS011;37298;42.688;23.312;2023-07-31T03:38:53;21.45;;;16.02;;
51224;SDS011;37298;42.688;23.312;2023-07-31T03:41:19;21.92;;;14.63;;
51224;SDS011;37298;42.688;23.312;2023-07-31T03:43:46;22.00;;;15.25;;
51224;SDS011;37298;42.688;23.312;2023-07-31T03:46:12;23.60;;;16.15;;
51224;SDS011;37298;42.688;23.312;2023-07-31T03:48:38;22.63;;;16.80;;
51224;SDS011;37298;42.688;23.312;2023-07-31T03:51:04;22.50;;;15.07;;
51224;SDS011;37298;42.688;23.312;2023-07-31T03:53:31;24.35;;;16.70;;
51224;SDS011;37298;42.688;23.312;2023-07-31T03:55:57;21.25;;;15.63;;
51224;SDS011;37298;42.688;23.312;2023-07-31T03:58:23;19.92;;;13.90;;
51224;SDS011;37298;42.688;23.312;2023-07-31T04:00:50;22.80;;;16.27;;
51224;SDS011;37298;42.688;23.312;2023-07-31T04:03:16;27.05;;;18.23;;
51224;SDS011;37298;42.688;23.312;2023-07-31T04:05:42;26.35;;;17.10;;
51224;SDS011;37298;42.688;23.312;2023-07-31T04:08:08;25.48;;;16.65;;
51224;SDS011;37298;42.688;23.312;2023-07-31T04:10:35;24.65;;;16.00;;
51224;SDS011;37298;42.688;23.312;2023-07-31T04:13:01;23.27;;;17.15;;
51224;SDS011;37298;42.688;23.312;2023-07-31T04:15:27;26.20;;;17.63;;
51224;SDS011;37298;42.688;23.312;2023-07-31T04:17:53;25.35;;;16.52;;
51224;SDS011;37298;42.688;23.312;2023-07-31T04:20:20;23.50;;;16.65;;
51224;SDS011;37298;42.688;23.312;2023-07-31T04:22:46;19.45;;;14.15;;
51224;SDS011;37298;42.688;23.312;2023-07-31T04:25:12;22.60;;;16.08;;
51224;SDS011;37298;42.688;23.312;2023-07-31T04:27:38;25.08;;;16.52;;
51224;SDS011;37298;42.688;23.312;2023-07-31T04:30:05;26.65;;;17.83;;
51224;SDS011;37298;42.688;23.312;2023-07-31T04:32:31;25.52;;;17.40;;
51224;SDS011;37298;42.688;23.312;2023-07-31T04:34:58;21.58;;;14.90;;
51224;SDS011;37298;42.688;23.312;2023-07-31T04:37:24;24.23;;;16.90;;
51224;SDS011;37298;42.688;23.312;2023-07-31T04:39:50;26.85;;;17.27;;
51224;SDS011;37298;42.688;23.312;2023-07-31T04:42:17;27.15;;;16.17;;
51224;SDS011;37298;42.688;23.312;2023-07-31T04:44:43;27.48;;;17.13;;
51224;SDS011;37298;42.688;23.312;2023-07-31T04:47:09;23.40;;;15.05;;
51224;SDS011;37298;42.688;23.312;2023-07-31T04:49:35;21.35;;;14.57;;
51224;SDS011;37298;42.688;23.312;2023-07-31T04:52:02;21.58;;;15.48;;
51224;SDS011;37298;42.688;23.312;2023-07-31T04:54:28;24.73;;;15.38;;
51224;SDS011;37298;42.688;23.312;2023-07-31T04:56:54;24.58;;;16.77;;
51224;SDS011;37298;42.688;23.312;2023-07-31T04:59:21;23.27;;;16.67;;
51224;SDS011;37298;42.688;23.312;2023-07-31T05:01:47;19.55;;;13.95;;
51224;SDS011;37298;42.688;23.312;2023-07-31T05:04:13;24.08;;;15.32;;
51224;SDS011;37298;42.688;23.312;2023-07-31T05:06:39;18.98;;;14.35;;
51224;SDS011;37298;42.688;23.312;2023-07-31T05:09:06;19.13;;;14.20;;
51224;SDS011;37298;42.688;23.312;2023-07-31T05:11:32;23.20;;;14.55;;
51224;SDS011;37298;42.688;23.312;2023-07-31T05:13:59;17.58;;;13.60;;
51224;SDS011;37298;42.688;23.312;2023-07-31T05:16:25;20.52;;;14.15;;
51224;SDS011;37298;42.688;23.312;2023-07-31T05:18:51;16.25;;;12.45;;
51224;SDS011;37298;42.688;23.312;2023-07-31T05:21:17;19.70;;;14.70;;
51224;SDS011;37298;42.688;23.312;2023-07-31T05:23:43;15.07;;;11.30;;
51224;SDS011;37298;42.688;23.312;2023-07-31T05:26:10;15.18;;;11.18;;
51224;SDS011;37298;42.688;23.312;2023-07-31T05:28:36;14.15;;;10.27;;
51224;SDS011;37298;42.688;23.312;2023-07-31T05:31:03;14.93;;;11.07;;
51224;SDS011;37298;42.688;23.312;2023-07-31T05:33:29;14.32;;;10.82;;
51224;SDS011;37298;42.688;23.312;2023-07-31T05:35:56;14.20;;;10.48;;
51224;SDS011;37298;42.688;23.312;2023-07-31T05:38:22;15.70;;;9.98;;
51224;SDS011;37298;42.688;23.312;2023-07-31T05:40:48;13.27;;;10.07;;
51224;SDS011;37298;42.688;23.312;2023-07-31T05:43:15;16.38;;;10.32;;
51224;SDS011;37298;42.688;23.312;2023-07-31T05:45:42;10.73;;;8.13;;
51224;SDS011;37298;42.688;23.312;2023-07-31T05:48:08;12.50;;;7.90;;
51224;SDS011;37298;42.688;23.312;2023-07-31T05:50:34;12.52;;;8.32;;
51224;SDS011;37298;42.688;23.312;2023-07-31T05:53:00;12.50;;;7.57;;
51224;SDS011;37298;42.688;23.312;2023-07-31T05:55:26;7.60;;;6.22;;
51224;SDS011;37298;42.688;23.312;2023-07-31T05:57:53;8.70;;;6.85;;
51224;SDS011;37298;42.688;23.312;2023-07-31T06:00:20;10.57;;;7.25;;
51224;SDS011;37298;42.688;23.312;2023-07-31T06:02:46;9.18;;;6.57;;
51224;SDS011;37298;42.688;23.312;2023-07-31T06:05:13;11.07;;;6.60;;
51224;SDS011;37298;42.688;23.312;2023-07-31T06:07:39;7.13;;;5.28;;
51224;SDS011;37298;42.688;23.312;2023-07-31T06:10:05;8.65;;;6.35;;
51224;SDS011;37298;42.688;23.312;2023-07-31T06:12:32;6.65;;;5.78;;
51224;SDS011;37298;42.688;23.312;2023-07-31T06:14:58;11.30;;;5.63;;
51224;SDS011;37298;42.688;23.312;2023-07-31T06:17:26;12.38;;;5.53;;
51224;SDS011;37298;42.688;23.312;2023-07-31T06:19:52;6.43;;;4.47;;
51224;SDS011;37298;42.688;23.312;2023-07-31T06:22:18;6.22;;;4.43;;
51224;SDS011;37298;42.688;23.312;2023-07-31T06:24:46;5.50;;;3.97;;
51224;SDS011;37298;42.688;23.312;2023-07-31T06:27:12;4.30;;;3.78;;
51224;SDS011;37298;42.688;23.312;2023-07-31T06:29:38;7.50;;;4.57;;
51224;SDS011;37298;42.688;23.312;2023-07-31T06:32:04;6.55;;;4.50;;
51224;SDS011;37298;42.688;23.312;2023-07-31T06:34:31;6.00;;;4.25;;
51224;SDS011;37298;42.688;23.312;2023-07-31T06:36:57;8.00;;;4.20;;
51224;SDS011;37298;42.688;23.312;2023-07-31T06:39:23;6.25;;;4.20;;
51224;SDS011;37298;42.688;23.312;2023-07-31T06:41:49;6.03;;;3.90;;
51224;SDS011;37298;42.688;23.312;2023-07-31T06:44:16;5.55;;;3.50;;
51224;SDS011;37298;42.688;23.312;2023-07-31T06:46:42;5.03;;;4.13;;
51224;SDS011;37298;42.688;23.312;2023-07-31T06:49:08;5.38;;;4.50;;
51224;SDS011;37298;42.688;23.312;2023-07-31T06:51:36;7.50;;;4.03;;
51224;SDS011;37298;42.688;23.312;2023-07-31T06:54:12;5.72;;;3.90;;
51224;SDS011;37298;42.688;23.312;2023-07-31T06:56:38;4.10;;;3.25;;
51224;SDS011;37298;42.688;23.312;2023-07-31T06:59:04;4.70;;;3.47;;
51224;SDS011;37298;42.688;23.312;2023-07-31T07:01:31;4.47;;;3.60;;
51224;SDS011;37298;42.688;23.312;2023-07-31T07:03:57;3.83;;;3.05;;
51224;SDS011;37298;42.688;23.312;2023-07-31T07:06:23;3.97;;;2.75;;
51224;SDS011;37298;42.688;23.312;2023-07-31T07:08:50;6.07;;;3.38;;
51224;SDS011;37298;42.688;23.312;2023-07-31T07:11:16;4.18;;;3.00;;
51224;SDS011;37298;42.688;23.312;2023-07-31T07:13:43;6.32;;;3.03;;
51224;SDS011;37298;42.688;23.312;2023-07-31T07:16:09;4.78;;;2.90;;
51224;SDS011;37298;42.688;23.312;2023-07-31T07:18:36;3.55;;;2.80;;
51224;SDS011;37298;42.688;23.312;2023-07-31T07:21:02;3.97;;;3.13;;
51224;SDS011;37298;42.688;23.312;2023-07-31T07:23:28;5.47;;;3.00;;
51224;SDS011;37298;42.688;23.312;2023-07-31T07:25:55;12.25;;;3.30;;
51224;SDS011;37298;42.688;23.312;2023-07-31T07:28:21;3.85;;;2.92;;
51224;SDS011;37298;42.688;23.312;2023-07-31T07:30:50;6.28;;;3.15;;
51224;SDS011;37298;42.688;23.312;2023-07-31T07:33:17;5.20;;;3.20;;
51224;SDS011;37298;42.688;23.312;2023-07-31T07:35:43;3.83;;;2.97;;
51224;SDS011;37298;42.688;23.312;2023-07-31T07:38:09;4.38;;;3.35;;
51224;SDS011;37298;42.688;23.312;2023-07-31T07:40:38;4.32;;;3.05;;
51224;SDS011;37298;42.688;23.312;2023-07-31T07:43:04;5.65;;;3.22;;
51224;SDS011;37298;42.688;23.312;2023-07-31T07:45:31;4.50;;;2.38;;
51224;SDS011;37298;42.688;23.312;2023-07-31T07:47:57;3.80;;;2.65;;
51224;SDS011;37298;42.688;23.312;2023-07-31T07:50:24;4.18;;;3.00;;
51224;SDS011;37298;42.688;23.312;2023-07-31T07:52:50;5.07;;;2.90;;
51224;SDS011;37298;42.688;23.312;2023-07-31T07:55:17;7.18;;;2.85;;
51224;SDS011;37298;42.688;23.312;2023-07-31T07:57:43;2.78;;;2.10;;
51224;SDS011;37298;42.688;23.312;2023-07-31T08:00:11;4.00;;;2.17;;
51224;SDS011;37298;42.688;23.312;2023-07-31T08:02:41;2.58;;;2.10;;
51224;SDS011;37298;42.688;23.312;2023-07-31T08:05:08;3.50;;;2.35;;
51224;SDS011;37298;42.688;23.312;2023-07-31T08:07:34;4.90;;;2.20;;
51224;SDS011;37298;42.688;23.312;2023-07-31T08:10:00;3.17;;;2.42;;
51224;SDS011;37298;42.688;23.312;2023-07-31T08:12:26;3.97;;;2.90;;
51224;SDS011;37298;42.688;23.312;2023-07-31T08:14:52;3.20;;;2.50;;
51224;SDS011;37298;42.688;23.312;2023-07-31T08:17:19;5.43;;;3.10;;
51224;SDS011;37298;42.688;23.312;2023-07-31T08:19:45;3.22;;;2.70;;
51224;SDS011;37298;42.688;23.312;2023-07-31T08:22:12;2.83;;;2.40;;
51224;SDS011;37298;42.688;23.312;2023-07-31T08:24:38;6.68;;;3.08;;
51224;SDS011;37298;42.688;23.312;2023-07-31T08:27:05;6.30;;;3.08;;
51224;SDS011;37298;42.688;23.312;2023-07-31T08:29:31;5.93;;;2.97;;
51224;SDS011;37298;42.688;23.312;2023-07-31T08:31:58;5.28;;;2.85;;
51224;SDS011;37298;42.688;23.312;2023-07-31T08:34:24;3.55;;;2.55;;
51224;SDS011;37298;42.688;23.312;2023-07-31T08:36:51;4.47;;;2.88;;
51224;SDS011;37298;42.688;23.312;2023-07-31T08:39:17;4.50;;;3.03;;
51224;SDS011;37298;42.688;23.312;2023-07-31T08:41:43;3.72;;;2.83;;
51224;SDS011;37298;42.688;23.312;2023-07-31T08:44:09;4.03;;;2.40;;
51224;SDS011;37298;42.688;23.312;2023-07-31T08:46:36;6.05;;;3.00;;
51224;SDS011;37298;42.688;23.312;2023-07-31T08:49:03;6.78;;;2.88;;
51224;SDS011;37298;42.688;23.312;2023-07-31T08:51:30;3.35;;;2.25;;
51224;SDS011;37298;42.688;23.312;2023-07-31T08:53:57;6.18;;;3.03;;
51224;SDS011;37298;42.688;23.312;2023-07-31T08:56:23;3.35;;;2.50;;
51224;SDS011;37298;42.688;23.312;2023-07-31T08:58:49;3.70;;;2.10;;
51224;SDS011;37298;42.688;23.312;2023-07-31T09:01:16;2.67;;;1.95;;
51224;SDS011;37298;42.688;23.312;2023-07-31T09:03:42;3.55;;;2.28;;
51224;SDS011;37298;42.688;23.312;2023-07-31T09:06:09;4.03;;;2.70;;
51224;SDS011;37298;42.688;23.312;2023-07-31T09:08:37;2.70;;;2.10;;
51224;SDS011;37298;42.688;23.312;2023-07-31T09:11:06;3.03;;;2.20;;
51224;SDS011;37298;42.688;23.312;2023-07-31T09:13:32;3.38;;;2.38;;
51224;SDS011;37298;42.688;23.312;2023-07-31T09:15:58;4.03;;;2.55;;
51224;SDS011;37298;42.688;23.312;2023-07-31T09:18:24;4.45;;;2.05;;
51224;SDS011;37298;42.688;23.312;2023-07-31T09:21:00;4.60;;;2.95;;
51224;SDS011;37298;42.688;23.312;2023-07-31T09:23:26;6.13;;;2.97;;
51224;SDS011;37298;42.688;23.312;2023-07-31T09:26:06;3.95;;;2.47;;
51224;SDS011;37298;42.688;23.312;2023-07-31T09:28:32;3.95;;;2.67;;
51224;SDS011;37298;42.688;23.312;2023-07-31T09:30:58;5.88;;;2.17;;
51224;SDS011;37298;42.688;23.312;2023-07-31T09:33:24;3.90;;;2.53;;
51224;SDS011;37298;42.688;23.312;2023-07-31T09:35:51;5.00;;;2.53;;
51224;SDS011;37298;42.688;23.312;2023-07-31T09:38:17;5.13;;;2.90;;
51224;SDS011;37298;42.688;23.312;2023-07-31T09:40:44;3.67;;;2.70;;
51224;SDS011;37298;42.688;23.312;2023-07-31T09:43:12;4.20;;;2.33;;
51224;SDS011;37298;42.688;23.312;2023-07-31T09:45:39;4.63;;;2.80;;
51224;SDS011;37298;42.688;23.312;2023-07-31T09:48:06;3.90;;;2.97;;
51224;SDS011;37298;42.688;23.312;2023-07-31T09:50:36;7.07;;;2.03;;
51224;SDS011;37298;42.688;23.312;2023-07-31T09:53:02;2.70;;;1.60;;
51224;SDS011;37298;42.688;23.312;2023-07-31T09:55:28;4.57;;;2.13;;
51224;SDS011;37298;42.688;23.312;2023-07-31T09:57:55;3.65;;;2.67;;
51224;SDS011;37298;42.688;23.312;2023-07-31T10:00:23;2.73;;;2.13;;
51224;SDS011;37298;42.688;23.312;2023-07-31T10:02:53;3.30;;;2.08;;
51224;SDS011;37298;42.688;23.312;2023-07-31T10:05:20;2.72;;;1.80;;
51224;SDS011;37298;42.688;23.312;2023-07-31T10:07:49;4.57;;;2.10;;
51224;SDS011;37298;42.688;23.312;2023-07-31T10:10:17;2.33;;;2.00;;
51224;SDS011;37298;42.688;23.312;2023-07-31T10:12:45;4.10;;;2.40;;
51224;SDS011;37298;42.688;23.312;2023-07-31T10:15:12;3.50;;;2.05;;
51224;SDS011;37298;42.688;23.312;2023-07-31T10:17:39;2.72;;;1.90;;
51224;SDS011;37298;42.688;23.312;2023-07-31T10:20:06;3.83;;;1.90;;
51224;SDS011;37298;42.688;23.312;2023-07-31T10:22:32;2.72;;;2.13;;
51224;SDS011;37298;42.688;23.312;2023-07-31T10:24:59;3.53;;;2.10;;
51224;SDS011;37298;42.688;23.312;2023-07-31T10:27:25;3.28;;;2.28;;
51224;SDS011;37298;42.688;23.312;2023-07-31T10:29:51;2.83;;;1.88;;
51224;SDS011;37298;42.688;23.312;2023-07-31T10:32:18;4.20;;;1.92;;
51224;SDS011;37298;42.688;23.312;2023-07-31T10:34:46;1.98;;;1.60;;
51224;SDS011;37298;42.688;23.312;2023-07-31T10:37:19;1.90;;;1.55;;
51224;SDS011;37298;42.688;23.312;2023-07-31T10:39:45;1.95;;;1.60;;
51224;SDS011;37298;42.688;23.312;2023-07-31T10:42:20;2.13;;;1.60;;
51224;SDS011;37298;42.688;23.312;2023-07-31T10:44:53;6.00;;;2.15;;
51224;SDS011;37298;42.688;23.312;2023-07-31T10:47:21;2.08;;;1.67;;
51224;SDS011;37298;42.688;23.312;2023-07-31T10:49:47;3.55;;;1.70;;
51224;SDS011;37298;42.688;23.312;2023-07-31T10:52:15;2.90;;;2.05;;
51224;SDS011;37298;42.688;23.312;2023-07-31T10:54:48;2.65;;;1.90;;
51224;SDS011;37298;42.688;23.312;2023-07-31T10:57:18;2.50;;;1.75;;
51224;SDS011;37298;42.688;23.312;2023-07-31T10:59:45;4.03;;;1.88;;
51224;SDS011;37298;42.688;23.312;2023-07-31T11:02:19;2.90;;;1.95;;
51224;SDS011;37298;42.688;23.312;2023-07-31T11:04:57;3.67;;;1.58;;
51224;SDS011;37298;42.688;23.312;2023-07-31T11:07:45;2.03;;;1.73;;
51224;SDS011;37298;42.688;23.312;2023-07-31T11:10:12;2.40;;;1.67;;
51224;SDS011;37298;42.688;23.312;2023-07-31T11:12:41;2.83;;;1.75;;
51224;SDS011;37298;42.688;23.312;2023-07-31T11:15:08;2.03;;;1.40;;
51224;SDS011;37298;42.688;23.312;2023-07-31T11:17:37;2.40;;;1.70;;
51224;SDS011;37298;42.688;23.312;2023-07-31T11:20:08;5.50;;;1.95;;
51224;SDS011;37298;42.688;23.312;2023-07-31T11:22:34;2.42;;;1.73;;
51224;SDS011;37298;42.688;23.312;2023-07-31T11:25:00;1.98;;;1.35;;
51224;SDS011;37298;42.688;23.312;2023-07-31T11:27:27;4.60;;;1.80;;
51224;SDS011;37298;42.688;23.312;2023-07-31T11:29:53;4.15;;;2.20;;
51224;SDS011;37298;42.688;23.312;2023-07-31T11:32:19;1.83;;;1.20;;
51224;SDS011;37298;42.688;23.312;2023-07-31T11:34:52;2.50;;;2.03;;
51224;SDS011;37298;42.688;23.312;2023-07-31T11:37:19;2.13;;;1.60;;
51224;SDS011;37298;42.688;23.312;2023-07-31T11:39:57;2.78;;;1.88;;
51224;SDS011;37298;42.688;23.312;2023-07-31T11:42:24;1.88;;;1.50;;
51224;SDS011;37298;42.688;23.312;2023-07-31T11:44:50;3.28;;;2.40;;
51224;SDS011;37298;42.688;23.312;2023-07-31T11:47:16;2.95;;;2.30;;
51224;SDS011;37298;42.688;23.312;2023-07-31T11:49:43;3.30;;;2.20;;
51224;SDS011;37298;42.688;23.312;2023-07-31T11:52:09;3.00;;;2.13;;
51224;SDS011;37298;42.688;23.312;2023-07-31T11:54:36;4.50;;;2.20;;
51224;SDS011;37298;42.688;23.312;2023-07-31T11:57:02;6.00;;;2.22;;
51224;SDS011;37298;42.688;23.312;2023-07-31T11:59:29;3.35;;;2.38;;
51224;SDS011;37298;42.688;23.312;2023-07-31T12:01:56;6.45;;;2.10;;
51224;SDS011;37298;42.688;23.312;2023-07-31T12:04:22;2.88;;;2.25;;
51224;SDS011;37298;42.688;23.312;2023-07-31T12:06:49;3.35;;;2.50;;
51224;SDS011;37298;42.688;23.312;2023-07-31T12:09:16;3.88;;;2.75;;
51224;SDS011;37298;42.688;23.312;2023-07-31T12:11:43;2.90;;;2.25;;
51224;SDS011;37298;42.688;23.312;2023-07-31T12:14:18;8.05;;;3.33;;
51224;SDS011;37298;42.688;23.312;2023-07-31T12:16:45;8.32;;;3.20;;
51224;SDS011;37298;42.688;23.312;2023-07-31T12:19:11;4.55;;;3.03;;
51224;SDS011;37298;42.688;23.312;2023-07-31T12:21:37;4.75;;;3.50;;
51224;SDS011;37298;42.688;23.312;2023-07-31T12:24:04;5.15;;;3.72;;
51224;SDS011;37298;42.688;23.312;2023-07-31T12:26:33;4.25;;;3.50;;
51224;SDS011;37298;42.688;23.312;2023-07-31T12:29:00;4.43;;;3.53;;
51224;SDS011;37298;42.688;23.312;2023-07-31T12:31:27;6.78;;;3.90;;
51224;SDS011;37298;42.688;23.312;2023-07-31T12:33:54;4.83;;;3.40;;
51224;SDS011;37298;42.688;23.312;2023-07-31T12:36:21;4.37;;;3.50;;
51224;SDS011;37298;42.688;23.312;2023-07-31T12:38:49;3.92;;;3.13;;
51224;SDS011;37298;42.688;23.312;2023-07-31T12:41:15;3.92;;;3.20;;
51224;SDS011;37298;42.688;23.312;2023-07-31T12:43:42;4.43;;;3.33;;
51224;SDS011;37298;42.688;23.312;2023-07-31T12:46:09;5.55;;;3.90;;
51224;SDS011;37298;42.688;23.312;2023-07-31T12:48:35;4.53;;;3.78;;
51224;SDS011;37298;42.688;23.312;2023-07-31T12:51:02;5.40;;;4.40;;
51224;SDS011;37298;42.688;23.312;2023-07-31T12:53:28;5.80;;;4.32;;
51224;SDS011;37298;42.688;23.312;2023-07-31T12:55:54;6.07;;;4.82;;
51224;SDS011;37298;42.688;23.312;2023-07-31T12:58:20;6.35;;;4.25;;
51224;SDS011;37298;42.688;23.312;2023-07-31T13:00:46;6.03;;;3.97;;
51224;SDS011;37298;42.688;23.312;2023-07-31T13:03:13;5.25;;;4.13;;
51224;SDS011;37298;42.688;23.312;2023-07-31T13:05:40;5.03;;;3.97;;
51224;SDS011;37298;42.688;23.312;2023-07-31T13:08:06;6.57;;;4.28;;
51224;SDS011;37298;42.688;23.312;2023-07-31T13:10:32;4.35;;;3.63;;
51224;SDS011;37298;42.688;23.312;2023-07-31T13:12:59;8.63;;;4.53;;
51224;SDS011;37298;42.688;23.312;2023-07-31T13:15:25;5.78;;;3.92;;
51224;SDS011;37298;42.688;23.312;2023-07-31T13:17:51;4.75;;;4.25;;
51224;SDS011;37298;42.688;23.312;2023-07-31T13:20:17;5.03;;;4.13;;
51224;SDS011;37298;42.688;23.312;2023-07-31T13:22:43;7.18;;;3.97;;
51224;SDS011;37298;42.688;23.312;2023-07-31T13:25:10;5.50;;;4.20;;
51224;SDS011;37298;42.688;23.312;2023-07-31T13:27:36;5.70;;;3.80;;
51224;SDS011;37298;42.688;23.312;2023-07-31T13:30:02;3.55;;;3.00;;
51224;SDS011;37298;42.688;23.312;2023-07-31T13:32:30;4.07;;;3.40;;
51224;SDS011;37298;42.688;23.312;2023-07-31T13:34:56;8.80;;;3.92;;
51224;SDS011;37298;42.688;23.312;2023-07-31T13:37:22;6.95;;;3.50;;
51224;SDS011;37298;42.688;23.312;2023-07-31T13:39:49;7.38;;;3.05;;
51224;SDS011;37298;42.688;23.312;2023-07-31T13:42:15;5.40;;;3.42;;
51224;SDS011;37298;42.688;23.312;2023-07-31T13:44:41;4.00;;;3.25;;
51224;SDS011;37298;42.688;23.312;2023-07-31T13:47:08;6.20;;;3.78;;
51224;SDS011;37298;42.688;23.312;2023-07-31T13:49:34;4.80;;;3.03;;
51224;SDS011;37298;42.688;23.312;2023-07-31T13:52:01;4.10;;;3.13;;
51224;SDS011;37298;42.688;23.312;2023-07-31T13:54:28;4.93;;;3.17;;
51224;SDS011;37298;42.688;23.312;2023-07-31T13:56:54;4.30;;;3.40;;
51224;SDS011;37298;42.688;23.312;2023-07-31T13:59:20;3.65;;;2.95;;
51224;SDS011;37298;42.688;23.312;2023-07-31T14:01:46;4.13;;;2.90;;
51224;SDS011;37298;42.688;23.312;2023-07-31T14:04:13;4.47;;;2.92;;
51224;SDS011;37298;42.688;23.312;2023-07-31T14:06:39;4.47;;;2.80;;
51224;SDS011;37298;42.688;23.312;2023-07-31T14:09:05;4.10;;;3.17;;
51224;SDS011;37298;42.688;23.312;2023-07-31T14:11:32;4.72;;;3.13;;
51224;SDS011;37298;42.688;23.312;2023-07-31T14:13:58;3.97;;;3.00;;
51224;SDS011;37298;42.688;23.312;2023-07-31T14:16:25;4.97;;;3.65;;
51224;SDS011;37298;42.688;23.312;2023-07-31T14:18:51;4.63;;;3.25;;
51224;SDS011;37298;42.688;23.312;2023-07-31T14:21:18;3.90;;;3.10;;
51224;SDS011;37298;42.688;23.312;2023-07-31T14:23:45;6.13;;;3.38;;